Time;durP1;ratioP1;P1;durP2;ratioP2;P2;SDS_P1;SDS_P2;PMS_P1;PMS_P2;Temp;Humidity;BMP_temperature;BMP_pressure;BME280_temperature;BME280_humidity;BME280_pressure;Samples;Min_cycle;Max_cycle;Signal;HPM_P1;HPM_P2
2022/03/23 00:01:18;;;;;;;33.92;19.25;;;;;;;7.22;55.52;102940.09;5076785;28;20039;-84
2022/03/23 00:03:44;;;;;;;44.25;19.25;;;;;;;7.16;56.20;102938.22;5076338;28;20398;-84
2022/03/23 00:06:12;;;;;;;38.25;20.40;;;;;;;7.04;57.52;102938.78;5073577;28;20036;-84
2022/03/23 00:08:38;;;;;;;37.50;19.55;;;;;;;7.02;56.11;102936.94;5059411;28;20052;-84
2022/03/23 00:11:04;;;;;;;36.03;18.80;;;;;;;6.94;55.25;102936.75;5076437;28;20085;-84
2022/03/23 00:13:30;;;;;;;41.47;19.08;;;;;;;6.89;56.27;102933.09;5059801;28;20044;-84
2022/03/23 00:15:56;;;;;;;37.63;19.65;;;;;;;6.88;56.75;102934.84;5055651;28;20039;-84
2022/03/23 00:18:21;;;;;;;32.30;18.38;;;;;;;6.85;55.50;102926.00;5055880;28;20045;-84
2022/03/23 00:20:47;;;;;;;38.63;18.10;;;;;;;6.85;55.34;102931.25;5072622;28;20041;-83
2022/03/23 00:23:13;;;;;;;36.78;19.60;;;;;;;6.78;56.72;102932.81;5065873;28;20062;-84
2022/03/23 00:25:39;;;;;;;47.53;21.35;;;;;;;6.76;57.48;102938.91;5059687;28;20107;-84
2022/03/23 00:28:05;;;;;;;38.20;19.92;;;;;;;6.60;57.56;102929.66;5075757;28;20400;-84
2022/03/23 00:30:34;;;;;;;42.47;20.20;;;;;;;6.61;57.96;102936.72;5075213;28;20034;-84
2022/03/23 00:33:02;;;;;;;38.85;19.50;;;;;;;6.57;58.45;102940.13;5065003;28;20040;-84
2022/03/23 00:35:29;;;;;;;35.28;19.75;;;;;;;6.48;55.89;102932.88;5075830;28;20063;-84
2022/03/23 00:37:55;;;;;;;38.55;19.65;;;;;;;6.46;58.36;102945.97;5075761;28;20081;-83
2022/03/23 00:40:21;;;;;;;34.67;20.00;;;;;;;6.41;58.51;102939.69;5092474;28;20067;-83
2022/03/23 00:42:47;;;;;;;40.65;19.00;;;;;;;6.33;57.11;102929.75;5092176;28;20032;-84
2022/03/23 00:45:13;;;;;;;39.03;20.10;;;;;;;6.32;55.31;102941.16;5093476;28;20433;-84
2022/03/23 00:47:39;;;;;;;35.78;20.23;;;;;;;6.24;58.91;102939.19;5093886;28;20119;-84
2022/03/23 00:50:06;;;;;;;33.20;19.00;;;;;;;6.19;59.07;102940.78;5093502;28;20440;-84
2022/03/23 00:52:37;;;;;;;37.80;20.80;;;;;;;6.12;60.34;102933.56;5075021;28;20077;-84
2022/03/23 00:55:09;;;;;;;36.90;21.25;;;;;;;6.06;59.81;102940.34;5072010;28;20047;-84
2022/03/23 00:57:38;;;;;;;41.35;22.08;;;;;;;5.98;60.80;102942.75;5055642;28;20028;-83
2022/03/23 01:00:12;;;;;;;40.40;20.63;;;;;;;5.90;60.50;102938.97;5055606;28;20463;-84
2022/03/23 01:02:39;;;;;;;37.80;22.00;;;;;;;5.81;61.11;102937.84;5055271;28;20078;-84
2022/03/23 01:05:05;;;;;;;43.03;21.95;;;;;;;5.80;60.22;102945.69;5055137;28;20123;-83
2022/03/23 01:07:31;;;;;;;38.28;23.13;;;;;;;5.73;60.50;102935.81;5072859;28;20052;-84
2022/03/23 01:09:56;;;;;;;35.50;20.35;;;;;;;5.71;58.34;102932.25;5055114;28;20115;-83
2022/03/23 01:12:22;;;;;;;35.25;21.10;;;;;;;5.70;58.29;102926.09;5055317;28;20093;-84
2022/03/23 01:14:48;;;;;;;43.40;20.17;;;;;;;5.70;61.23;102936.59;5055025;28;20388;-83
2022/03/23 01:17:13;;;;;;;37.78;19.48;;;;;;;5.59;62.49;102920.50;5054933;28;20127;-83
2022/03/23 01:19:40;;;;;;;37.20;21.40;;;;;;;5.65;61.19;102935.56;5056739;28;20039;-83
2022/03/23 01:22:06;;;;;;;36.85;19.67;;;;;;;5.62;61.32;102929.34;5090018;28;20035;-84
2022/03/23 01:24:31;;;;;;;41.65;20.63;;;;;;;5.58;60.65;102925.69;5093827;28;20043;-83
2022/03/23 01:26:58;;;;;;;40.75;23.25;;;;;;;5.56;60.58;102923.03;5095324;28;20031;-84
2022/03/23 01:29:24;;;;;;;42.80;22.90;;;;;;;5.56;63.00;102917.78;5095210;28;20036;-84
2022/03/23 01:31:49;;;;;;;43.70;21.88;;;;;;;5.53;61.81;102916.78;5061481;28;20067;-84
2022/03/23 01:34:15;;;;;;;35.95;20.80;;;;;;;5.49;61.43;102920.13;5095171;28;20506;-84
2022/03/23 01:36:41;;;;;;;49.85;23.73;;;;;;;5.48;61.17;102919.25;5095138;28;20122;-84
2022/03/23 01:39:06;;;;;;;40.55;23.38;;;;;;;5.42;60.45;102913.81;5078521;28;20411;-84
2022/03/23 01:41:35;;;;;;;41.13;22.27;;;;;;;5.42;61.26;102912.94;5095888;28;20038;-84
2022/03/23 01:44:01;;;;;;;40.40;23.05;;;;;;;5.38;61.00;102914.56;5078420;28;20106;-83
2022/03/23 01:46:27;;;;;;;43.28;22.20;;;;;;;5.35;60.62;102917.09;5078817;28;20024;-84
2022/03/23 01:48:55;;;;;;;34.92;21.33;;;;;;;5.33;60.28;102906.50;5061823;28;20487;-83
2022/03/23 01:51:20;;;;;;;44.92;21.70;;;;;;;5.30;60.51;102916.94;5095302;28;20058;-83
2022/03/23 01:53:46;;;;;;;34.03;20.63;;;;;;;5.27;60.59;102918.56;5095358;28;20111;-83
2022/03/23 01:56:14;;;;;;;42.88;21.48;;;;;;;5.23;60.98;102917.56;5111743;28;20540;-83
2022/03/23 01:58:40;;;;;;;36.30;20.75;;;;;;;5.21;61.24;102911.34;5094773;28;20031;-83
2022/03/23 02:01:10;;;;;;;35.60;19.60;;;;;;;5.16;59.01;102905.94;5078431;28;20131;-83
2022/03/23 02:03:35;;;;;;;38.95;20.25;;;;;;;5.17;61.69;102910.38;5079530;28;20559;-84
2022/03/23 02:06:01;;;;;;;38.30;21.05;;;;;;;5.10;62.03;102918.00;5065221;28;20039;-83
2022/03/23 02:08:28;;;;;;;35.13;20.35;;;;;;;5.02;62.76;102907.25;5081581;28;20051;-83
2022/03/23 02:10:54;;;;;;;38.75;20.85;;;;;;;4.93;62.75;102912.16;5106299;28;20090;-83
2022/03/23 02:13:29;;;;;;;38.25;20.58;;;;;;;4.87;62.69;102912.84;5078357;28;20036;-83
2022/03/23 02:15:58;;;;;;;43.60;20.30;;;;;;;4.83;63.33;102915.31;5062088;28;20055;-83
2022/03/23 02:18:25;;;;;;;34.63;21.17;;;;;;;4.70;64.18;102904.38;5078461;28;20028;-83
2022/03/23 02:20:53;;;;;;;44.10;21.95;;;;;;;4.73;64.15;102911.47;5062014;28;20123;-83
2022/03/23 02:23:19;;;;;;;47.63;21.83;;;;;;;4.68;63.95;102915.66;5077126;28;20032;-83
2022/03/23 02:25:49;;;;;;;41.83;20.58;;;;;;;4.65;64.30;102913.81;5061582;28;20035;-83
2022/03/23 02:28:15;;;;;;;45.40;21.13;;;;;;;4.65;64.11;102908.59;5045633;28;20059;-83
2022/03/23 02:30:41;;;;;;;33.00;19.65;;;;;;;4.61;61.67;102911.03;5077912;28;20483;-83
2022/03/23 02:33:06;;;;;;;42.88;20.58;;;;;;;4.58;64.22;102905.69;5061178;28;20024;-83
2022/03/23 02:35:32;;;;;;;45.90;21.05;;;;;;;4.55;63.87;102909.09;5061345;28;20115;-83
2022/03/23 02:37:57;;;;;;;40.80;19.35;;;;;;;4.51;65.32;102912.44;5078076;28;20047;-83
2022/03/23 02:40:23;;;;;;;41.05;22.15;;;;;;;4.43;65.65;102916.50;5096246;28;20060;-83
2022/03/23 02:42:48;;;;;;;37.50;21.45;;;;;;;4.35;66.09;102904.81;5077822;28;20520;-83
2022/03/23 02:45:14;;;;;;;40.70;20.08;;;;;;;4.31;65.08;102901.22;5060988;28;20051;-83
2022/03/23 02:47:41;;;;;;;34.78;20.75;;;;;;;4.28;65.38;102903.72;5061157;28;20126;-83
2022/03/23 02:50:07;;;;;;;39.92;22.23;;;;;;;4.24;67.60;102901.81;5078278;28;20111;-83
2022/03/23 02:52:33;;;;;;;43.30;21.67;;;;;;;4.16;67.27;102898.03;5027877;28;20416;-83
2022/03/23 03:03:34;;;;;;;36.25;19.10;;;;;;;4.15;65.22;102904.97;5077358;28;20403;-83
2022/03/23 03:06:03;;;;;;;38.22;20.90;;;;;;;4.08;66.06;102909.13;5061008;28;20036;-83
2022/03/23 03:08:49;;;;;;;37.95;20.73;;;;;;;4.04;66.70;102907.19;5057317;28;20128;-83
2022/03/23 03:11:17;;;;;;;46.53;21.20;;;;;;;3.98;66.08;102901.75;5040207;28;20064;-83
2022/03/23 03:13:45;;;;;;;40.75;21.25;;;;;;;3.92;67.45;102904.09;5053731;28;20029;-83
2022/03/23 03:16:10;;;;;;;50.78;21.95;;;;;;;3.84;67.27;102903.81;5053277;28;20049;-83
2022/03/23 03:18:35;;;;;;;37.22;20.83;;;;;;;3.87;65.80;102919.66;5020766;28;20563;-83
2022/03/23 03:21:06;;;;;;;41.50;22.02;;;;;;;3.84;65.49;102916.91;5020451;28;20043;-83
2022/03/23 03:23:33;;;;;;;40.92;20.42;;;;;;;3.84;66.04;102916.03;5037265;28;20044;-83
2022/03/23 03:26:01;;;;;;;48.80;21.67;;;;;;;3.86;67.38;102930.97;5054969;28;20106;-83
2022/03/23 03:28:28;;;;;;;41.35;20.08;;;;;;;3.84;66.09;102927.41;5037299;28;20072;-83
2022/03/23 03:30:53;;;;;;;35.00;22.15;;;;;;;3.83;67.65;102924.72;5020787;28;20071;-83
2022/03/23 03:33:19;;;;;;;34.58;19.88;;;;;;;3.83;67.97;102916.84;5037115;28;20037;-83
2022/03/23 03:35:44;;;;;;;39.13;22.15;;;;;;;3.85;68.97;102929.19;5036882;28;20045;-83
2022/03/23 03:38:10;;;;;;;40.42;20.60;;;;;;;3.84;68.75;102921.28;5036593;28;20044;-83
2022/03/23 03:40:36;;;;;;;46.00;22.42;;;;;;;3.83;68.95;102924.72;5036621;28;20041;-83
2022/03/23 03:43:01;;;;;;;32.28;20.63;;;;;;;3.81;68.91;102926.41;5020145;28;20031;-83
2022/03/23 03:45:27;;;;;;;38.97;20.40;;;;;;;3.77;69.36;102929.72;5052997;28;20040;-83
2022/03/23 03:47:52;;;;;;;31.70;18.95;;;;;;;3.70;67.61;102922.44;5020319;28;20040;-84
2022/03/23 03:50:18;;;;;;;41.88;21.17;;;;;;;3.70;69.32;102922.44;5036711;28;20044;-83
2022/03/23 03:52:43;;;;;;;38.55;20.80;;;;;;;3.64;68.83;102926.63;5020154;28;20429;-83
2022/03/23 03:55:09;;;;;;;38.15;20.45;;;;;;;3.57;68.40;102916.72;5036594;28;20056;-83
2022/03/23 03:57:34;;;;;;;33.70;19.73;;;;;;;3.61;67.41;102926.50;5036379;28;20098;-84
2022/03/23 04:00:00;;;;;;;37.88;19.92;;;;;;;3.60;67.29;102927.31;5036183;28;20037;-84
2022/03/23 04:02:25;;;;;;;32.63;20.48;;;;;;;3.58;67.58;102926.34;5036363;28;20128;-83
2022/03/23 04:04:50;;;;;;;39.95;22.30;;;;;;;3.58;69.29;102931.59;5036249;28;20049;-84
2022/03/23 04:07:16;;;;;;;37.90;19.88;;;;;;;3.54;68.25;102932.31;5053942;28;20040;-83
2022/03/23 04:09:41;;;;;;;33.92;20.52;;;;;;;3.50;68.20;102921.66;5069184;28;20072;-83
2022/03/23 04:12:07;;;;;;;38.28;21.45;;;;;;;3.47;68.34;102925.03;5052719;28;20041;-83
2022/03/23 04:14:34;;;;;;;35.33;19.65;;;;;;;3.44;69.01;102925.81;5035911;28;20495;-83
2022/03/23 04:17:00;;;;;;;38.08;19.75;;;;;;;3.43;69.25;102926.63;5035901;28;20033;-83
2022/03/23 04:19:25;;;;;;;38.53;20.92;;;;;;;3.42;69.72;102931.81;5052308;28;20033;-83
2022/03/23 04:21:51;;;;;;;38.05;20.27;;;;;;;3.38;69.20;102928.16;5035505;28;20041;-84
2022/03/23 04:24:16;;;;;;;35.53;20.55;;;;;;;3.37;68.23;102929.00;5056032;28;20091;-83
2022/03/23 04:26:44;;;;;;;41.22;21.15;;;;;;;3.37;68.33;102928.13;4998737;28;20037;-82
2022/03/23 04:29:10;;;;;;;37.90;21.15;;;;;;;3.37;68.49;102931.63;5032602;28;20040;-82
2022/03/23 04:31:35;;;;;;;38.03;20.52;;;;;;;3.35;68.08;102928.03;5033641;28;20444;-83
2022/03/23 04:34:01;;;;;;;43.42;21.48;;;;;;;3.37;68.32;102925.50;5015910;28;20087;-82
2022/03/23 04:36:26;;;;;;;38.63;21.33;;;;;;;3.37;67.70;102930.75;5049817;28;20029;-83
2022/03/23 04:38:52;;;;;;;34.83;20.23;;;;;;;3.40;67.01;102926.50;5049088;28;20167;-83
2022/03/23 04:41:18;;;;;;;40.03;20.42;;;;;;;3.40;68.08;102928.25;5032475;28;20042;-82
2022/03/23 04:43:43;;;;;;;34.10;18.55;;;;;;;3.39;66.90;102932.59;5015804;28;20247;-82
2022/03/23 04:46:09;;;;;;;33.28;20.05;;;;;;;3.40;66.07;102934.38;5048804;28;20029;-82
2022/03/23 04:48:34;;;;;;;32.17;18.17;;;;;;;3.38;65.85;102933.41;5015954;28;20041;-82
2022/03/23 04:51:00;;;;;;;35.92;20.00;;;;;;;3.40;67.45;102933.47;5015654;28;20519;-82
2022/03/23 04:53:26;;;;;;;41.67;19.23;;;;;;;3.40;67.19;102942.22;5015746;28;20033;-83
2022/03/23 04:55:51;;;;;;;40.47;21.02;;;;;;;3.38;67.66;102938.63;5015408;28;20266;-83
2022/03/23 04:58:17;;;;;;;32.25;19.45;;;;;;;3.32;67.10;102935.78;5015625;28;20146;-82
2022/03/23 05:00:42;;;;;;;30.95;18.10;;;;;;;3.29;66.57;102933.06;5032011;28;20381;-82
2022/03/23 05:03:08;;;;;;;35.33;19.15;;;;;;;3.34;67.36;102949.84;5031809;28;20034;-82
2022/03/23 05:05:34;;;;;;;40.08;20.55;;;;;;;3.31;66.20;102943.56;5032340;28;20068;-82
2022/03/23 05:08:00;;;;;;;34.80;18.60;;;;;;;3.27;65.48;102939.94;5034188;28;20493;-82
2022/03/23 05:10:25;;;;;;;31.20;18.52;;;;;;;3.29;65.02;102945.22;5015253;28;20044;-82
2022/03/23 05:12:51;;;;;;;40.70;19.40;;;;;;;3.27;65.97;102937.31;4998912;28;20042;-82
2022/03/23 05:15:17;;;;;;;41.63;20.58;;;;;;;3.28;67.21;102948.69;5032159;28;20044;-82
2022/03/23 05:17:44;;;;;;;40.65;20.30;;;;;;;3.24;66.59;102952.91;5031659;28;20037;-82
2022/03/23 05:20:11;;;;;;;35.20;18.38;;;;;;;3.17;64.69;102954.38;5015001;28;20038;-83
2022/03/23 05:22:37;;;;;;;32.60;19.63;;;;;;;3.14;65.57;102953.31;5032048;28;20127;-82
2022/03/23 05:25:04;;;;;;;42.35;19.75;;;;;;;3.10;66.72;102943.56;5047876;28;20230;-82
2022/03/23 05:27:38;;;;;;;33.42;20.55;;;;;;;3.12;67.65;102955.00;5031749;28;20045;-82
2022/03/23 05:30:07;;;;;;;41.70;19.75;;;;;;;3.10;68.40;102949.69;5048157;28;20486;-82
2022/03/23 05:32:33;;;;;;;35.75;20.55;;;;;;;3.05;67.35;102950.34;5048291;28;20026;-82
2022/03/23 05:34:58;;;;;;;35.22;18.83;;;;;;;3.04;66.60;102961.63;5047912;28;20378;-82
2022/03/23 05:37:24;;;;;;;37.70;20.33;;;;;;;2.99;67.56;102957.09;5031100;28;20052;-82
2022/03/23 05:39:50;;;;;;;39.70;20.13;;;;;;;2.96;66.56;102959.56;5051922;28;20057;-83
2022/03/23 05:42:15;;;;;;;35.63;20.02;;;;;;;2.95;66.93;102963.03;5051834;28;20037;-82
2022/03/23 05:44:41;;;;;;;37.17;20.15;;;;;;;2.96;68.63;102964.78;5051945;28;20045;-82
2022/03/23 05:47:06;;;;;;;35.33;20.08;;;;;;;2.96;67.31;102969.16;5034972;28;20182;-82
2022/03/23 05:49:32;;;;;;;37.72;21.73;;;;;;;2.97;69.06;102965.72;5019321;28;20045;-82
2022/03/23 05:51:58;;;;;;;45.40;21.13;;;;;;;2.97;68.61;102971.84;5051851;28;20025;-83
2022/03/23 05:54:24;;;;;;;39.10;21.38;;;;;;;3.01;68.73;102978.09;5036517;28;20021;-82
2022/03/23 05:56:50;;;;;;;39.83;20.05;;;;;;;3.03;69.45;102976.44;5035200;28;20132;-83
2022/03/23 05:59:17;;;;;;;35.95;20.05;;;;;;;3.01;68.78;102989.44;5051389;28;20548;-82
2022/03/23 06:01:42;;;;;;;44.72;20.85;;;;;;;2.99;68.26;102980.66;5068528;28;20037;-82
2022/03/23 06:04:08;;;;;;;38.95;19.73;;;;;;;3.04;68.59;102985.19;5036574;28;20397;-82
2022/03/23 06:06:34;;;;;;;34.40;20.33;;;;;;;3.11;68.28;102988.13;5068114;28;20427;-83
2022/03/23 06:08:59;;;;;;;36.90;19.88;;;;;;;3.22;68.73;102993.84;5035105;28;20076;-83
2022/03/23 06:11:25;;;;;;;35.15;21.10;;;;;;;3.28;68.92;102983.63;5051514;28;20037;-83
2022/03/23 06:13:50;;;;;;;37.33;20.45;;;;;;;3.32;68.61;102989.91;5036565;28;20117;-83
2022/03/23 06:16:16;;;;;;;39.97;20.63;;;;;;;3.32;68.73;102993.41;5018743;28;20029;-83
2022/03/23 06:18:42;;;;;;;38.33;21.00;;;;;;;3.30;68.85;102988.94;5034903;28;20079;-83
2022/03/23 06:21:07;;;;;;;44.80;21.23;;;;;;;3.31;68.55;102990.69;5017935;28;20481;-82
2022/03/23 06:23:33;;;;;;;37.78;20.88;;;;;;;3.34;68.35;102986.50;5005098;28;20021;-83
2022/03/23 06:25:59;;;;;;;44.20;22.35;;;;;;;3.37;68.78;102988.34;5034661;28;20037;-83
2022/03/23 06:28:26;;;;;;;40.33;23.30;;;;;;;3.46;68.84;103001.81;5034320;28;20404;-82
2022/03/23 06:30:52;;;;;;;35.97;20.60;;;;;;;3.49;69.04;102987.94;5034659;28;20029;-83
2022/03/23 06:33:19;;;;;;;41.00;22.48;;;;;;;3.52;68.93;102991.63;5033897;28;20060;-82
2022/03/23 06:35:45;;;;;;;38.40;20.45;;;;;;;3.58;68.41;102988.34;5035259;28;20041;-83
2022/03/23 06:38:12;;;;;;;43.55;21.85;;;;;;;3.60;68.70;102991.94;5034058;28;20045;-83
2022/03/23 06:40:37;;;;;;;33.58;20.38;;;;;;;3.71;69.15;102994.97;5017935;28;20393;-83
2022/03/23 06:43:03;;;;;;;43.08;22.20;;;;;;;3.80;69.30;103004.13;5067503;28;20043;-82
2022/03/23 06:45:29;;;;;;;38.08;20.27;;;;;;;3.88;69.08;103014.91;5067360;28;20037;-83
2022/03/23 06:47:55;;;;;;;34.70;21.33;;;;;;;3.98;68.98;103017.09;5017712;28;20053;-83
2022/03/23 06:50:21;;;;;;;43.83;22.48;;;;;;;4.06;68.35;103009.53;5016426;28;20022;-82
2022/03/23 06:52:46;;;;;;;37.60;21.40;;;;;;;4.08;68.78;103000.88;5017328;28;20120;-83
2022/03/23 06:55:12;;;;;;;42.15;21.40;;;;;;;4.23;68.74;103010.19;5035205;28;20516;-84
2022/03/23 06:57:37;;;;;;;48.40;21.52;;;;;;;4.25;68.66;103001.56;5050163;28;20108;-84
2022/03/23 07:00:12;;;;;;;39.72;21.05;;;;;;;4.39;67.86;102999.44;5043147;28;20060;-84
2022/03/23 07:02:40;;;;;;;41.67;22.45;;;;;;;4.48;67.67;103005.03;5053811;28;20033;-85
2022/03/23 07:05:06;;;;;;;43.78;22.52;;;;;;;4.61;67.76;103010.75;5036597;28;20029;-85
2022/03/23 07:07:35;;;;;;;40.80;23.77;;;;;;;4.68;68.10;103016.28;5050739;28;20453;-85
2022/03/23 07:10:02;;;;;;;52.05;23.77;;;;;;;4.77;67.62;103009.56;5057310;28;20429;-84
2022/03/23 07:12:28;;;;;;;46.65;24.38;;;;;;;4.86;66.70;103004.69;5093381;28;20475;-85
2022/03/23 07:14:53;;;;;;;43.72;24.00;;;;;;;4.98;67.55;103012.09;5075679;28;20036;-85
2022/03/23 07:17:19;;;;;;;45.95;24.27;;;;;;;5.01;66.49;103002.59;5059112;28;20031;-85
2022/03/23 07:19:44;;;;;;;48.70;24.92;;;;;;;5.20;66.03;103019.03;5094447;28;20036;-85
2022/03/23 07:22:11;;;;;;;51.92;24.73;;;;;;;5.31;65.34;103025.53;5059388;28;20733;-84
2022/03/23 07:24:37;;;;;;;45.13;22.00;;;;;;;5.35;63.94;103012.56;5064154;28;20029;-84
2022/03/23 07:27:03;;;;;;;50.95;25.23;;;;;;;5.50;64.46;103021.81;5074815;28;20097;-84
2022/03/23 07:29:28;;;;;;;50.40;25.88;;;;;;;5.62;64.20;103021.34;5072444;28;20107;-84
2022/03/23 07:31:54;;;;;;;43.67;21.98;;;;;;;5.69;63.16;103013.69;5073240;28;20044;-85
2022/03/23 07:34:19;;;;;;;41.90;24.60;;;;;;;5.88;64.06;103024.81;5056323;28;20028;-87
2022/03/23 07:36:47;;;;;;;44.45;26.25;;;;;;;6.05;63.30;103020.13;5022996;28;20040;-86
2022/03/23 07:39:20;;;;;;;44.13;24.48;;;;;;;6.18;62.58;103023.22;5040222;28;20044;-86
2022/03/23 07:41:50;;;;;;;45.92;23.88;;;;;;;6.29;62.80;103013.00;5060924;28;20041;-86
2022/03/23 07:44:18;;;;;;;47.78;24.67;;;;;;;6.41;61.87;103017.75;5072962;28;20494;-86
2022/03/23 07:46:47;;;;;;;45.30;26.23;;;;;;;6.59;61.33;103026.19;5074415;28;20029;-86
2022/03/23 07:49:15;;;;;;;44.95;25.02;;;;;;;6.73;60.62;103036.25;5073178;28;20036;-86
2022/03/23 07:51:40;;;;;;;51.33;24.92;;;;;;;6.83;61.58;103025.13;5072257;28;20109;-86
2022/03/23 07:54:07;;;;;;;48.70;24.08;;;;;;;7.01;61.96;103038.81;5022435;28;20059;-86
2022/03/23 07:56:33;;;;;;;38.88;23.88;;;;;;;7.14;60.23;103033.88;5089050;28;20042;-86
2022/03/23 07:58:58;;;;;;;45.70;24.63;;;;;;;7.19;60.14;103025.25;5072976;28;20041;-86
2022/03/23 08:01:24;;;;;;;45.28;24.55;;;;;;;7.36;59.35;103038.88;5059330;28;20398;-86
2022/03/23 08:03:50;;;;;;;49.20;26.48;;;;;;;7.48;58.59;103033.03;5093879;28;20067;-87
2022/03/23 08:06:15;;;;;;;38.45;24.33;;;;;;;7.61;58.45;103032.50;5075453;28;20040;-87
2022/03/23 08:08:41;;;;;;;44.58;24.63;;;;;;;7.69;58.29;103027.41;5071193;28;20057;-87
2022/03/23 08:11:08;;;;;;;43.80;26.38;;;;;;;7.84;57.83;103038.38;5088038;28;20049;-89
2022/03/23 08:13:41;;;;;;;45.72;26.02;;;;;;;7.94;57.65;103021.91;5089056;28;20398;-92
2022/03/23 08:16:07;;;;;;;44.55;26.15;;;;;;;8.18;56.84;103041.78;5055165;28;20036;-86
2022/03/23 08:18:33;;;;;;;40.45;24.45;;;;;;;8.29;57.07;103032.38;5072730;28;20532;-85
2022/03/23 08:21:00;;;;;;;48.30;25.80;;;;;;;8.43;55.78;103035.34;5072973;28;20094;-87
2022/03/23 08:23:26;;;;;;;46.50;26.38;;;;;;;8.54;54.82;103033.84;5071373;28;20099;-86
2022/03/23 08:25:52;;;;;;;52.65;26.95;;;;;;;8.72;54.25;103040.38;5057647;28;20128;-86
2022/03/23 08:28:18;;;;;;;50.40;25.52;;;;;;;8.83;54.20;103031.81;5068243;28;20040;-84
2022/03/23 08:30:45;;;;;;;42.90;24.42;;;;;;;8.97;52.75;103026.78;5039953;28;20035;-86
2022/03/23 08:33:11;;;;;;;44.22;24.52;;;;;;;9.17;53.76;103036.88;5050113;28;20075;-87
2022/03/23 08:35:38;;;;;;;44.17;25.85;;;;;;;9.31;52.44;103032.72;5033645;28;20059;-86
2022/03/23 08:38:05;;;;;;;45.72;24.00;;;;;;;9.50;52.93;103033.09;5049998;28;20037;-86
2022/03/23 08:40:31;;;;;;;52.80;25.98;;;;;;;9.64;52.17;103028.91;5051966;28;20383;-86
2022/03/23 08:42:58;;;;;;;51.00;25.45;;;;;;;9.76;50.35;103026.47;5071280;28;20040;-86
2022/03/23 08:45:24;;;;;;;50.88;26.27;;;;;;;9.90;51.50;103027.56;5071315;28;20071;-86
2022/03/23 08:47:50;;;;;;;48.55;25.58;;;;;;;10.08;51.60;103034.03;5071560;28;20056;-86
2022/03/23 08:50:16;;;;;;;57.53;26.52;;;;;;;10.22;50.18;103024.53;5071662;28;20025;-86
2022/03/23 08:52:41;;;;;;;46.72;25.25;;;;;;;10.37;50.12;103041.56;5070373;28;20040;-82
2022/03/23 08:55:15;;;;;;;45.38;25.10;;;;;;;10.47;49.23;103022.25;5054310;28;20097;-82
2022/03/23 08:57:42;;;;;;;38.58;24.65;;;;;;;10.66;48.52;103032.25;5088073;28;20063;-82
2022/03/23 09:00:09;;;;;;;44.05;24.52;;;;;;;10.76;47.07;103020.00;5070708;28;20079;-82
2022/03/23 09:02:34;;;;;;;37.53;23.67;;;;;;;10.99;48.35;103022.91;5070429;28;20062;-81
2022/03/23 09:05:00;;;;;;;46.95;25.63;;;;;;;11.16;47.20;103034.59;5087366;28;20040;-82
2022/03/23 09:07:25;;;;;;;48.88;25.13;;;;;;;11.32;46.79;103027.66;5071482;28;20036;-82
2022/03/23 09:09:51;;;;;;;41.35;24.13;;;;;;;11.49;45.92;103037.56;5074065;28;20044;-81
2022/03/23 09:12:17;;;;;;;43.55;25.92;;;;;;;11.63;45.44;103023.53;5073642;28;20097;-82
2022/03/23 09:14:42;;;;;;;42.33;25.50;;;;;;;11.78;44.60;103027.22;5073788;28;20066;-82
2022/03/23 09:17:08;;;;;;;46.10;25.98;;;;;;;11.96;45.08;103026.50;5073939;28;20024;-81
2022/03/23 09:19:34;;;;;;;46.00;25.65;;;;;;;12.17;44.65;103031.06;5073944;28;20032;-82
2022/03/23 09:22:00;;;;;;;52.22;26.15;;;;;;;12.33;44.75;103029.38;5090320;28;20035;-81
2022/03/23 09:24:27;;;;;;;43.13;24.35;;;;;;;12.50;44.12;103025.06;5061151;28;20122;-81
2022/03/23 09:26:53;;;;;;;45.35;25.13;;;;;;;12.70;42.75;103033.13;5069723;28;20032;-82
2022/03/23 09:29:19;;;;;;;44.47;25.98;;;;;;;12.83;42.30;103032.31;5058608;28;20047;-81
2022/03/23 09:31:44;;;;;;;50.30;27.35;;;;;;;13.01;42.06;103025.28;5073136;28;20123;-82
2022/03/23 09:34:10;;;;;;;50.92;27.08;;;;;;;13.16;42.63;103032.41;5090363;28;20089;-81
2022/03/23 09:39:20;;;;;;;38.25;22.80;;;;;;;13.51;40.35;103022.72;5061790;28;20373;-81
2022/03/23 09:41:46;;;;;;;38.63;25.17;;;;;;;13.71;40.34;103027.16;5065952;28;20041;-82
2022/03/23 09:44:12;;;;;;;50.17;26.40;;;;;;;13.85;41.55;103017.41;5070105;28;20037;-81
2022/03/23 09:46:38;;;;;;;46.80;26.33;;;;;;;14.06;39.99;103024.47;5053387;28;20036;-81
2022/03/23 09:49:06;;;;;;;46.40;26.88;;;;;;;14.24;39.51;103025.31;5053252;28;20365;-81
2022/03/23 09:51:33;;;;;;;43.72;24.83;;;;;;;14.38;39.53;103018.19;5053173;28;20028;-82
2022/03/23 09:54:00;;;;;;;46.55;26.00;;;;;;;14.48;39.49;103014.59;5036725;28;20441;-81
2022/03/23 09:56:25;;;;;;;47.67;27.40;;;;;;;14.64;39.54;103018.13;5036713;28;20480;-82
2022/03/23 09:58:51;;;;;;;42.90;25.75;;;;;;;14.82;39.08;103027.81;5053211;28;20043;-82
2022/03/23 10:01:28;;;;;;;41.78;25.90;;;;;;;15.03;40.37;103017.06;5036832;28;20091;-82
2022/03/23 10:04:27;;;;;;;35.72;24.20;;;;;;;15.15;37.82;103012.53;5053348;28;20044;-81
2022/03/23 10:07:22;;;;;;;47.13;25.38;;;;;;;15.32;39.33;103023.97;5069678;28;20037;-81
2022/03/23 10:10:06;;;;;;;44.03;24.65;;;;;;;15.56;38.42;103016.69;5036646;28;20559;-82
2022/03/23 10:12:56;;;;;;;41.53;25.27;;;;;;;15.81;37.93;103023.63;5053010;28;20032;-82
2022/03/23 10:16:00;;;;;;;48.33;25.23;;;;;;;15.91;38.97;103017.28;5036584;28;20033;-81
2022/03/23 10:18:47;;;;;;;37.47;24.85;;;;;;;16.15;36.54;103030.41;5053117;28;20486;-81
2022/03/23 10:21:14;;;;;;;50.65;25.92;;;;;;;16.33;36.00;103019.53;5053038;28;20547;-81
2022/03/23 10:24:09;;;;;;;48.50;25.40;;;;;;;16.48;36.43;103023.81;5065712;28;20025;-82
2022/03/23 10:26:36;;;;;;;36.88;24.10;;;;;;;16.58;34.24;103017.47;5063866;28;20044;-83
2022/03/23 10:29:03;;;;;;;42.50;23.83;;;;;;;16.65;33.47;103013.81;5059501;28;20062;-82
2022/03/23 10:31:29;;;;;;;42.83;23.83;;;;;;;16.82;33.87;103007.41;5060612;28;20582;-81
2022/03/23 10:34:08;;;;;;;45.40;24.42;;;;;;;17.03;33.76;103008.88;5077072;28;20032;-82
2022/03/23 10:36:40;;;;;;;37.08;23.38;;;;;;;17.21;33.87;103016.66;5076952;28;20043;-82
2022/03/23 10:39:10;;;;;;;40.28;25.02;;;;;;;17.34;32.21;103010.19;5076900;28;20046;-81
2022/03/23 10:41:36;;;;;;;46.47;22.80;;;;;;;17.53;33.58;103004.53;5086765;28;20353;-82
2022/03/23 10:44:02;;;;;;;37.10;24.10;;;;;;;17.78;32.97;103010.38;5056577;28;20155;-82
2022/03/23 10:46:28;;;;;;;37.22;23.83;;;;;;;17.95;32.86;103002.03;5074330;28;20218;-82
2022/03/23 10:49:01;;;;;;;42.78;23.38;;;;;;;18.15;33.09;103002.56;5039580;28;20041;-82
2022/03/23 10:51:29;;;;;;;38.10;24.00;;;;;;;18.34;32.86;103000.38;5075043;28;20028;-82
2022/03/23 10:53:55;;;;;;;33.60;22.30;;;;;;;18.57;30.95;102991.88;5075629;28;20031;-82
2022/03/23 10:56:30;;;;;;;37.20;23.25;;;;;;;18.77;31.25;102998.63;5059943;28;20419;-82
2022/03/23 10:59:23;;;;;;;35.97;23.85;;;;;;;18.93;32.76;102992.00;5076557;28;20032;-82
2022/03/23 11:02:03;;;;;;;36.53;24.45;;;;;;;19.12;31.39;102998.72;5089246;28;20071;-82
2022/03/23 11:04:53;;;;;;;40.65;23.58;;;;;;;19.12;31.22;102997.84;5072932;28;20486;-83
2022/03/23 11:07:38;;;;;;;34.87;24.10;;;;;;;19.25;31.55;102990.38;5071819;28;20040;-85
2022/03/23 11:15:47;;;;;;;36.25;22.42;;;;;;;19.67;28.68;102982.16;5072120;28;20051;-82
2022/03/23 11:18:17;;;;;;;37.67;21.98;;;;;;;19.78;27.69;102990.84;5074709;28;20314;-82
2022/03/23 11:20:52;;;;;;;32.60;21.08;;;;;;;19.70;28.66;102990.19;5039433;28;20123;-83
2022/03/23 11:23:33;;;;;;;38.30;22.50;;;;;;;19.80;28.16;102986.31;5073631;28;20025;-83
2022/03/23 11:26:07;;;;;;;36.45;22.65;;;;;;;19.92;26.68;102975.22;5084097;28;20036;-82
2022/03/23 11:28:42;;;;;;;35.83;22.02;;;;;;;20.13;27.62;102979.16;5092192;28;20028;-82
2022/03/23 11:31:10;;;;;;;39.58;22.30;;;;;;;20.20;26.57;102987.91;5072438;28;20158;-82
2022/03/23 11:33:37;;;;;;;35.17;21.23;;;;;;;20.41;25.13;102976.53;5072164;28;20032;-82